createdAt,value
2018-12-27T00:01:33.471Z,18.83
2018-12-27T00:04:02.301Z,18.43
2018-12-27T00:06:31.445Z,18.13
2018-12-27T00:09:00.823Z,17.20
2018-12-27T00:11:29.979Z,16.27
2018-12-27T00:13:59.364Z,18.13
2018-12-27T00:16:28.793Z,17.87
2018-12-27T00:18:57.918Z,19.17
2018-12-27T00:21:26.719Z,18.20
2018-12-27T00:23:56.488Z,17.77
2018-12-27T00:26:25.334Z,17.53
2018-12-27T00:28:54.548Z,16.40
2018-12-27T00:31:23.843Z,16.33
2018-12-27T00:33:52.903Z,16.97
2018-12-27T00:36:22.406Z,17.53
2018-12-27T00:38:51.606Z,18.30
2018-12-27T00:41:21.059Z,17.80
2018-12-27T00:43:50.905Z,17.37
2018-12-27T00:46:20.180Z,17.13
2018-12-27T00:48:49.986Z,17.63
2018-12-27T00:51:19.250Z,17.43
2018-12-27T00:53:48.274Z,16.97
2018-12-27T00:56:17.276Z,16.43
2018-12-27T00:58:46.815Z,16.90
2018-12-27T01:01:16.319Z,17.97
2018-12-27T01:03:45.584Z,16.03
2018-12-27T01:06:15.080Z,16.53
2018-12-27T01:08:44.115Z,15.87
2018-12-27T01:11:13.367Z,16.40
2018-12-27T01:13:42.482Z,15.93
2018-12-27T01:16:12.287Z,16.03
2018-12-27T01:18:41.818Z,14.73
2018-12-27T01:21:11.342Z,15.97
2018-12-27T01:23:40.851Z,15.63
2018-12-27T01:26:09.834Z,15.00
2018-12-27T01:28:39.130Z,15.43
2018-12-27T01:31:08.410Z,15.07
2018-12-27T01:33:37.803Z,14.87
2018-12-27T01:36:07.060Z,16.30
2018-12-27T01:38:36.439Z,14.63
2018-12-27T01:41:05.693Z,15.10
2018-12-27T01:43:35.190Z,16.10
2018-12-27T01:46:04.235Z,14.43
2018-12-27T01:48:33.519Z,15.03
2018-12-27T01:51:03.054Z,14.73
2018-12-27T01:53:32.327Z,15.07
2018-12-27T01:56:01.964Z,14.87
2018-12-27T01:58:31.244Z,14.23
2018-12-27T02:01:00.858Z,14.40
2018-12-27T02:03:30.129Z,15.13
2018-12-27T02:05:59.398Z,13.97
2018-12-27T02:08:29.227Z,14.30
2018-12-27T02:10:58.840Z,14.57
2018-12-27T02:13:28.086Z,14.87
2018-12-27T02:15:57.371Z,14.47
2018-12-27T02:18:26.891Z,14.53
2018-12-27T02:20:56.495Z,14.53
2018-12-27T02:23:26.029Z,14.73
2018-12-27T02:25:55.022Z,13.40
2018-12-27T02:28:24.019Z,14.30
2018-12-27T02:30:53.430Z,14.67
2018-12-27T02:33:23.212Z,13.93
2018-12-27T02:35:52.273Z,14.60
2018-12-27T02:38:21.604Z,14.97
2018-12-27T02:40:50.879Z,15.17
2018-12-27T02:43:19.846Z,14.53
2018-12-27T02:45:49.179Z,15.00
2018-12-27T02:48:18.747Z,14.53
2018-12-27T02:50:48.090Z,12.67
2018-12-27T02:53:17.330Z,14.57
2018-12-27T02:55:46.879Z,14.57
2018-12-27T02:58:16.147Z,14.73
2018-12-27T03:00:45.442Z,15.30
2018-12-27T03:03:14.707Z,14.70
2018-12-27T03:05:43.964Z,15.53
2018-12-27T03:08:13.333Z,15.00
2018-12-27T03:10:42.888Z,13.27
2018-12-27T03:13:12.146Z,14.23
2018-12-27T03:15:41.683Z,14.07
2018-12-27T03:18:11.202Z,14.77
2018-12-27T03:20:40.480Z,14.27
2018-12-27T03:23:09.739Z,14.07
2018-12-27T03:25:39.075Z,13.33
2018-12-27T03:28:09.124Z,13.50
2018-12-27T03:30:38.694Z,13.37
2018-12-27T03:33:07.960Z,14.63
2018-12-27T03:35:37.259Z,15.33
2018-12-27T03:38:06.511Z,14.47
2018-12-27T03:40:35.785Z,14.00
2018-12-27T03:43:04.772Z,15.23
2018-12-27T03:45:33.801Z,14.33
2018-12-27T03:48:03.348Z,19.80
2018-12-27T03:50:32.738Z,17.63
2018-12-27T03:53:02.270Z,22.20
2018-12-27T03:55:31.570Z,21.90
2018-12-27T03:58:01.150Z,16.27
2018-12-27T04:00:31.162Z,16.10
2018-12-27T04:03:00.452Z,17.97
2018-12-27T04:05:30.339Z,15.57
2018-12-27T04:07:59.586Z,14.70
2018-12-27T04:10:29.097Z,14.63
2018-12-27T04:12:58.350Z,14.67
2018-12-27T04:15:27.248Z,14.70
2018-12-27T04:17:56.401Z,14.77
2018-12-27T04:20:25.567Z,14.93
2018-12-27T04:22:54.790Z,15.00
2018-12-27T04:25:25.518Z,14.63
2018-12-27T04:27:54.697Z,14.37
2018-12-27T04:30:24.322Z,14.93
2018-12-27T04:32:54.424Z,15.43
2018-12-27T04:35:24.723Z,14.60
2018-12-27T04:37:53.873Z,15.03
2018-12-27T04:40:23.352Z,14.40
2018-12-27T04:42:54.268Z,15.77
2018-12-27T04:45:23.425Z,15.10
2018-12-27T04:47:52.803Z,15.83
2018-12-27T04:50:22.213Z,15.83
2018-12-27T04:52:51.079Z,15.30
2018-12-27T04:55:20.550Z,15.20
2018-12-27T04:57:49.749Z,15.93
2018-12-27T05:00:19.197Z,15.27
2018-12-27T05:02:48.367Z,14.77
2018-12-27T05:05:17.452Z,15.50
2018-12-27T05:07:46.847Z,16.70
2018-12-27T05:10:15.711Z,15.93
2018-12-27T05:12:44.827Z,17.07
2018-12-27T05:15:13.674Z,17.03
2018-12-27T05:17:42.793Z,17.03
2018-12-27T05:20:11.893Z,15.97
2018-12-27T05:22:41.255Z,16.30
2018-12-27T05:25:10.062Z,17.63
2018-12-27T05:27:39.223Z,16.90
2018-12-27T05:30:08.310Z,15.47
2018-12-27T05:32:37.165Z,16.67
2018-12-27T05:35:06.091Z,17.13
2018-12-27T05:37:35.510Z,16.17
2018-12-27T05:40:05.645Z,17.03
2018-12-27T05:42:34.538Z,15.97
2018-12-27T05:45:03.469Z,17.87
2018-12-27T05:47:32.584Z,17.87
2018-12-27T05:50:01.944Z,16.60
2018-12-27T05:52:31.243Z,15.80
2018-12-27T05:55:00.339Z,16.23
2018-12-27T05:57:29.459Z,16.50
2018-12-27T05:59:58.815Z,17.80
2018-12-27T06:02:28.243Z,16.27
2018-12-27T06:04:57.323Z,17.07
2018-12-27T06:07:26.442Z,18.03
2018-12-27T06:09:55.511Z,16.87
2018-12-27T06:12:24.874Z,17.30
2018-12-27T06:14:54.219Z,18.30
2018-12-27T06:17:23.584Z,16.20
2018-12-27T06:19:52.939Z,18.03
2018-12-27T06:22:22.314Z,16.70
2018-12-27T06:24:51.133Z,16.50
2018-12-27T06:27:33.116Z,17.47
2018-12-27T06:30:02.570Z,16.20
2018-12-27T06:32:31.883Z,17.33
2018-12-27T06:35:01.579Z,16.67
2018-12-27T06:37:31.019Z,15.60
2018-12-27T06:40:00.445Z,17.57
2018-12-27T06:42:29.802Z,16.83
2018-12-27T06:44:59.180Z,15.83
2018-12-27T06:47:28.815Z,16.60
2018-12-27T06:49:58.148Z,17.03
2018-12-27T06:52:27.339Z,15.93
2018-12-27T06:54:56.707Z,17.47
2018-12-27T06:57:26.075Z,16.60
2018-12-27T06:59:55.167Z,17.90
2018-12-27T07:02:24.792Z,18.53
2018-12-27T07:04:54.642Z,17.00
2018-12-27T07:07:23.795Z,17.20
2018-12-27T07:09:53.203Z,18.00
2018-12-27T07:12:22.589Z,17.00
2018-12-27T07:14:51.674Z,17.97
2018-12-27T07:17:20.506Z,16.90
2018-12-27T07:19:49.858Z,17.73
2018-12-27T07:22:19.218Z,18.33
2018-12-27T07:24:48.826Z,17.07
2018-12-27T07:27:18.574Z,17.97
2018-12-27T07:29:47.987Z,16.83
2018-12-27T07:32:17.133Z,17.53
2018-12-27T07:34:46.230Z,17.43
2018-12-27T07:37:15.606Z,16.77
2018-12-27T07:39:44.703Z,19.03
2018-12-27T07:42:14.045Z,18.47
2018-12-27T07:44:43.184Z,16.87
2018-12-27T07:47:12.287Z,17.27
2018-12-27T07:49:41.649Z,18.53
2018-12-27T07:52:10.988Z,16.43
2018-12-27T07:54:40.210Z,17.17
2018-12-27T07:57:11.220Z,16.60
2018-12-27T07:59:40.943Z,16.67
2018-12-27T08:02:10.006Z,16.47
2018-12-27T08:04:39.394Z,17.50
2018-12-27T08:07:08.488Z,21.67
2018-12-27T08:09:37.884Z,19.43
2018-12-27T08:12:06.966Z,18.37
2018-12-27T08:14:36.079Z,19.03
2018-12-27T08:17:06.051Z,18.67
2018-12-27T08:19:35.759Z,16.87
2018-12-27T08:22:05.170Z,16.23
2018-12-27T08:24:34.234Z,17.50
2018-12-27T08:27:03.326Z,15.80
2018-12-27T08:29:32.454Z,16.07
2018-12-27T08:32:02.074Z,16.53
2018-12-27T08:34:31.442Z,16.87
2018-12-27T08:37:01.303Z,16.30
2018-12-27T08:39:30.422Z,17.17
2018-12-27T08:41:59.758Z,16.43
2018-12-27T08:44:28.620Z,16.30
2018-12-27T08:46:58.042Z,16.87
2018-12-27T08:49:27.163Z,16.13
2018-12-27T08:51:56.511Z,17.40
2018-12-27T08:54:27.122Z,16.77
2018-12-27T08:56:56.590Z,15.80
2018-12-27T08:59:25.735Z,14.97
2018-12-27T09:01:55.674Z,13.53
2018-12-27T09:04:24.791Z,12.70
2018-12-27T09:06:54.129Z,12.50
2018-12-27T09:09:23.603Z,11.77
2018-12-27T09:11:53.563Z,11.23
2018-12-27T09:14:23.182Z,11.73
2018-12-27T09:16:52.534Z,9.90
2018-12-27T09:19:21.954Z,12.03
2018-12-27T09:21:51.066Z,11.13
2018-12-27T09:24:20.710Z,11.57
2018-12-27T09:26:50.103Z,19.20
2018-12-27T09:29:19.210Z,11.37
2018-12-27T09:31:48.039Z,10.63
2018-12-27T09:34:16.967Z,10.90
2018-12-27T09:36:46.087Z,11.07
2018-12-27T09:39:15.800Z,9.50
2018-12-27T09:41:45.427Z,9.50
2018-12-27T09:44:14.881Z,9.53
2018-12-27T09:46:44.230Z,10.10
2018-12-27T09:49:14.156Z,10.27
2018-12-27T09:51:43.395Z,10.50
2018-12-27T09:54:12.762Z,9.17
2018-12-27T09:56:42.458Z,9.17
2018-12-27T09:59:11.950Z,9.73
2018-12-27T10:01:41.466Z,9.50
2018-12-27T10:04:11.072Z,9.23
2018-12-27T10:06:39.964Z,9.60
2018-12-27T10:09:09.330Z,9.43
2018-12-27T10:11:38.706Z,9.03
2018-12-27T10:14:08.552Z,9.27
2018-12-27T10:16:37.915Z,8.80
2018-12-27T10:19:07.066Z,9.43
2018-12-27T10:21:36.430Z,8.73
2018-12-27T10:24:05.843Z,8.87
2018-12-27T10:26:35.459Z,8.97
2018-12-27T10:29:05.473Z,8.23
2018-12-27T10:31:35.377Z,7.67
2018-12-27T10:34:04.703Z,8.10
2018-12-27T10:36:34.095Z,8.13
2018-12-27T10:39:08.439Z,7.83
2018-12-27T10:41:37.268Z,7.60
2018-12-27T10:44:06.675Z,8.03
2018-12-27T10:46:35.483Z,7.73
2018-12-27T10:49:04.384Z,7.67
2018-12-27T10:51:33.329Z,8.47
2018-12-27T10:54:02.990Z,8.53
2018-12-27T10:56:32.414Z,8.10
2018-12-27T10:59:02.119Z,7.97
2018-12-27T11:01:31.559Z,7.67
2018-12-27T11:04:00.651Z,8.27
2018-12-27T11:06:30.014Z,8.80
2018-12-27T11:08:59.438Z,6.90
2018-12-27T11:11:29.060Z,7.50
2018-12-27T11:13:58.731Z,7.07
2018-12-27T11:16:28.175Z,7.80
2018-12-27T11:18:57.514Z,7.90
2018-12-27T11:21:26.446Z,7.83
2018-12-27T11:23:56.050Z,6.70
2018-12-27T11:26:25.175Z,7.97
2018-12-27T11:28:54.266Z,8.30
2018-12-27T11:31:23.647Z,8.07
2018-12-27T11:33:53.243Z,8.23
2018-12-27T11:36:22.371Z,7.83
2018-12-27T11:38:51.722Z,7.60
2018-12-27T11:41:21.175Z,8.47
2018-12-27T11:43:51.591Z,8.50
2018-12-27T11:46:21.410Z,8.23
2018-12-27T11:48:51.090Z,8.23
2018-12-27T11:51:20.492Z,8.57
2018-12-27T11:53:49.291Z,7.80
2018-12-27T11:56:18.531Z,7.90
2018-12-27T11:58:47.622Z,7.17
2018-12-27T12:01:16.732Z,7.40
2018-12-27T12:03:46.147Z,7.63
2018-12-27T12:06:15.542Z,7.93
2018-12-27T12:08:44.615Z,8.13
2018-12-27T12:11:14.057Z,7.33
2018-12-27T12:13:42.961Z,7.30
2018-12-27T12:16:12.738Z,7.77
2018-12-27T12:18:42.086Z,7.53
2018-12-27T12:21:11.502Z,7.17
2018-12-27T12:23:40.955Z,7.70
2018-12-27T12:26:10.142Z,7.83
2018-12-27T12:28:39.326Z,7.07
2018-12-27T12:31:08.218Z,7.10
2018-12-27T12:33:37.493Z,7.67
2018-12-27T12:36:10.720Z,6.93
2018-12-27T12:38:37.970Z,6.80
2018-12-27T12:41:06.761Z,6.40
2018-12-27T12:43:35.895Z,6.60
2018-12-27T12:46:04.994Z,6.87
2018-12-27T12:48:34.170Z,7.00
2018-12-27T12:51:03.519Z,6.70
2018-12-27T12:53:32.954Z,7.17
2018-12-27T12:56:02.041Z,6.27
2018-12-27T12:58:30.864Z,6.93
2018-12-27T13:00:59.983Z,6.57
2018-12-27T13:03:29.175Z,6.73
2018-12-27T13:05:58.339Z,6.70
2018-12-27T13:08:27.022Z,7.93
2018-12-27T13:10:56.250Z,6.87
2018-12-27T13:13:25.190Z,6.77
2018-12-27T13:15:54.278Z,7.10
2018-12-27T13:18:24.633Z,6.77
2018-12-27T13:20:53.826Z,6.87
2018-12-27T13:23:25.671Z,6.27
2018-12-27T13:25:55.110Z,6.00
2018-12-27T13:28:24.818Z,6.10
2018-12-27T13:30:54.166Z,6.57
2018-12-27T13:33:23.554Z,6.20
2018-12-27T13:35:53.145Z,5.73
2018-12-27T13:38:22.490Z,5.80
2018-12-27T13:40:52.091Z,6.60
2018-12-27T13:43:21.114Z,5.90
2018-12-27T13:45:50.160Z,5.97
2018-12-27T13:48:19.698Z,6.33
2018-12-27T13:50:48.419Z,5.87
2018-12-27T13:53:18.259Z,9.10
2018-12-27T13:55:47.527Z,6.50
2018-12-27T13:58:16.559Z,7.07
2018-12-27T14:00:45.289Z,6.17
2018-12-27T14:03:14.631Z,6.27
2018-12-27T14:05:43.660Z,6.40
2018-12-27T14:08:12.899Z,5.57
2018-12-27T14:10:42.236Z,6.00
2018-12-27T14:13:11.271Z,6.57
2018-12-27T14:15:40.540Z,8.93
2018-12-27T14:18:09.807Z,7.20
2018-12-27T14:20:38.858Z,8.30
2018-12-27T14:23:07.883Z,7.57
2018-12-27T14:25:36.931Z,8.03
2018-12-27T14:28:06.188Z,6.70
2018-12-27T14:30:35.231Z,7.50
2018-12-27T14:33:04.532Z,6.33
2018-12-27T14:35:33.555Z,6.07
2018-12-27T14:38:02.904Z,6.70
2018-12-27T14:40:32.439Z,6.60
2018-12-27T14:43:01.999Z,6.47
2018-12-27T14:45:31.356Z,6.60
2018-12-27T14:48:00.870Z,6.27
2018-12-27T14:50:30.163Z,5.93
2018-12-27T14:52:59.675Z,6.70
2018-12-27T14:55:29.208Z,6.23
2018-12-27T14:57:58.292Z,6.03
2018-12-27T15:00:27.571Z,6.17
2018-12-27T15:02:56.839Z,6.00
2018-12-27T15:05:25.593Z,5.60
2018-12-27T15:07:55.165Z,6.57
2018-12-27T15:10:24.268Z,5.33
2018-12-27T15:12:53.538Z,5.93
2018-12-27T15:15:22.819Z,5.93
2018-12-27T15:17:52.087Z,6.10
2018-12-27T15:20:20.842Z,5.77
2018-12-27T15:22:50.155Z,6.77
2018-12-27T15:25:19.693Z,6.80
2018-12-27T15:27:48.663Z,6.70
2018-12-27T15:30:17.764Z,7.57
2018-12-27T15:32:47.307Z,9.33
2018-12-27T15:35:17.079Z,9.23
2018-12-27T15:37:46.587Z,9.57
2018-12-27T15:40:18.188Z,8.93
2018-12-27T15:42:47.172Z,12.77
2018-12-27T15:45:16.253Z,11.53
2018-12-27T15:47:45.511Z,10.27
2018-12-27T15:50:14.567Z,10.03
2018-12-27T15:52:43.540Z,8.17
2018-12-27T15:55:13.668Z,8.83
2018-12-27T15:57:43.427Z,8.77
2018-12-27T16:00:12.386Z,8.20
2018-12-27T16:02:41.795Z,8.27
2018-12-27T16:05:12.798Z,8.10
2018-12-27T16:07:41.722Z,7.93
2018-12-27T16:10:10.556Z,8.73
2018-12-27T16:12:39.665Z,10.33
2018-12-27T16:15:08.793Z,8.60
2018-12-27T16:17:37.884Z,8.77
2018-12-27T16:20:07.157Z,9.50
2018-12-27T16:22:36.457Z,8.70
2018-12-27T16:25:05.366Z,9.03
2018-12-27T16:27:34.975Z,8.80
2018-12-27T16:30:04.201Z,9.40
2018-12-27T16:32:33.390Z,9.43
2018-12-27T16:35:02.940Z,8.53
2018-12-27T16:37:31.737Z,9.20
2018-12-27T16:40:00.686Z,8.43
2018-12-27T16:42:29.836Z,8.83
2018-12-27T16:44:59.409Z,9.63
2018-12-27T16:47:28.230Z,10.93
2018-12-27T16:49:57.041Z,10.93
2018-12-27T16:52:26.874Z,12.30
2018-12-27T16:54:55.928Z,11.60
2018-12-27T16:57:24.989Z,11.07
2018-12-27T16:59:53.751Z,12.07
2018-12-27T17:02:22.609Z,10.93
2018-12-27T17:04:51.710Z,11.27
2018-12-27T17:07:20.497Z,10.37
2018-12-27T17:09:49.296Z,10.87
2018-12-27T17:12:18.224Z,10.40
2018-12-27T17:14:47.306Z,10.30
2018-12-27T17:17:16.273Z,10.50
2018-12-27T17:19:45.857Z,11.33
2018-12-27T17:22:14.736Z,11.70
2018-12-27T17:24:43.862Z,13.00
2018-12-27T17:27:13.213Z,14.27
2018-12-27T17:29:43.690Z,15.53
2018-12-27T17:32:12.493Z,20.70
2018-12-27T17:34:41.634Z,14.73
2018-12-27T17:37:10.449Z,13.93
2018-12-27T17:39:39.410Z,11.97
2018-12-27T17:42:08.273Z,11.73
2018-12-27T17:44:37.641Z,11.93
2018-12-27T17:47:06.447Z,12.90
2018-12-27T17:49:35.578Z,11.97
2018-12-27T17:52:04.681Z,10.03
2018-12-27T17:54:33.527Z,9.70
2018-12-27T17:57:02.658Z,10.57
2018-12-27T17:59:31.993Z,10.40
2018-12-27T18:02:01.082Z,10.83
2018-12-27T18:04:30.181Z,11.60
2018-12-27T18:06:59.837Z,11.37
2018-12-27T18:09:28.920Z,11.73
2018-12-27T18:11:58.068Z,10.87
2018-12-27T18:14:26.852Z,9.07
2018-12-27T18:16:55.742Z,8.77
2018-12-27T18:19:25.054Z,8.37
2018-12-27T18:21:54.476Z,8.83
2018-12-27T18:24:23.885Z,8.60
2018-12-27T18:26:52.691Z,8.57
2018-12-27T18:29:21.586Z,8.07
2018-12-27T18:31:50.717Z,8.17
2018-12-27T18:34:20.054Z,8.17
2018-12-27T18:36:48.852Z,8.13
2018-12-27T18:39:17.673Z,8.47
2018-12-27T18:41:46.509Z,9.40
2018-12-27T18:44:15.373Z,8.77
2018-12-27T18:46:44.706Z,9.30
2018-12-27T18:49:20.487Z,8.93
2018-12-27T18:51:44.073Z,7.10
2018-12-27T18:54:13.407Z,8.13
2018-12-27T18:56:42.551Z,8.60
2018-12-27T18:59:11.734Z,8.30
2018-12-27T19:01:41.121Z,8.90
2018-12-27T19:04:10.008Z,8.17
2018-12-27T19:06:39.230Z,8.80
2018-12-27T19:09:08.210Z,8.03
2018-12-27T19:12:13.039Z,9.53
2018-12-27T19:14:41.941Z,11.23
2018-12-27T19:17:18.802Z,13.93
2018-12-27T19:19:48.421Z,14.07
2018-12-27T19:22:37.092Z,14.80
2018-12-27T19:25:06.237Z,14.83
2018-12-27T19:27:35.340Z,13.13
2018-12-27T19:30:04.609Z,10.73
2018-12-27T19:32:34.054Z,11.50
2018-12-27T19:35:02.969Z,11.90
2018-12-27T19:37:32.459Z,12.83
2018-12-27T19:40:01.818Z,16.03
2018-12-27T19:42:30.959Z,16.00
2018-12-27T19:44:59.782Z,19.13
2018-12-27T19:47:28.879Z,15.97
2018-12-27T19:49:58.382Z,13.73
2018-12-27T19:52:27.977Z,11.93
2018-12-27T19:54:57.096Z,12.00
2018-12-27T19:57:25.959Z,12.13
2018-12-27T19:59:54.846Z,11.23
2018-12-27T20:02:24.246Z,11.27
2018-12-27T20:04:54.009Z,11.80
2018-12-27T20:07:23.182Z,13.60
2018-12-27T20:09:52.115Z,11.73
2018-12-27T20:12:20.935Z,10.03
2018-12-27T20:14:50.071Z,9.97
2018-12-27T20:17:18.887Z,11.50
2018-12-27T20:19:48.042Z,11.33
2018-12-27T20:22:17.125Z,10.90
2018-12-27T20:24:45.952Z,12.20
2018-12-27T20:27:15.099Z,11.93
2018-12-27T20:29:43.950Z,11.53
2018-12-27T20:32:12.821Z,13.10
2018-12-27T20:34:41.665Z,12.00
2018-12-27T20:37:10.593Z,15.20
2018-12-27T20:39:39.702Z,14.40
2018-12-27T20:42:09.042Z,13.77
2018-12-27T20:44:37.853Z,13.40
2018-12-27T20:47:07.318Z,14.13
2018-12-27T20:49:36.419Z,13.87
2018-12-27T20:52:06.019Z,14.07
2018-12-27T20:54:35.090Z,14.50
2018-12-27T20:57:04.262Z,13.80
2018-12-27T20:59:33.048Z,14.10
2018-12-27T21:02:02.446Z,13.83
2018-12-27T21:04:31.778Z,15.07
2018-12-27T21:07:01.131Z,13.70
2018-12-27T21:09:30.285Z,12.87
2018-12-27T21:11:59.374Z,12.37
2018-12-27T21:14:28.160Z,13.80
2018-12-27T21:16:57.868Z,12.60
2018-12-27T21:19:26.957Z,14.63
2018-12-27T21:21:56.027Z,12.47
2018-12-27T21:24:25.105Z,14.30
2018-12-27T21:26:54.444Z,14.40
2018-12-27T21:29:23.910Z,14.43
2018-12-27T21:31:53.016Z,14.20
2018-12-27T21:34:22.220Z,14.83
2018-12-27T21:36:51.068Z,14.87
2018-12-27T21:39:20.505Z,14.80
2018-12-27T21:41:49.845Z,14.00
2018-12-27T21:44:19.434Z,13.07
2018-12-27T21:46:48.911Z,13.67
2018-12-27T21:49:18.233Z,13.43
2018-12-27T21:51:47.319Z,13.83
2018-12-27T21:54:16.666Z,12.97
2018-12-27T21:56:45.758Z,13.77
2018-12-27T21:59:15.110Z,13.77
2018-12-27T22:01:44.198Z,14.03
2018-12-27T22:04:13.303Z,13.87
2018-12-27T22:06:42.087Z,15.23
2018-12-27T22:09:10.928Z,16.37
2018-12-27T22:11:40.890Z,16.13
2018-12-27T22:14:10.031Z,15.90
2018-12-27T22:16:39.361Z,15.07
2018-12-27T22:19:08.865Z,13.43
2018-12-27T22:21:37.941Z,13.70
2018-12-27T22:24:07.360Z,14.03
2018-12-27T22:26:37.673Z,14.23
2018-12-27T22:29:06.866Z,14.13
2018-12-27T22:31:35.933Z,14.40
2018-12-27T22:34:05.075Z,15.40
2018-12-27T22:36:34.157Z,14.73
2018-12-27T22:39:05.770Z,15.13
2018-12-27T22:41:34.614Z,14.80
2018-12-27T22:44:03.754Z,14.70
2018-12-27T22:46:33.073Z,14.83
2018-12-27T22:49:02.043Z,15.10
2018-12-27T22:51:30.884Z,15.60
2018-12-27T22:53:59.728Z,16.03
2018-12-27T22:56:28.857Z,15.27
2018-12-27T22:58:57.697Z,17.97
2018-12-27T23:01:26.854Z,17.47
2018-12-27T23:03:56.022Z,15.73
2018-12-27T23:06:25.183Z,15.70
2018-12-27T23:08:54.020Z,14.30
2018-12-27T23:11:23.930Z,14.60
2018-12-27T23:13:53.632Z,14.97
2018-12-27T23:16:22.750Z,15.07
2018-12-27T23:18:51.867Z,14.70
2018-12-27T23:21:21.568Z,15.20
2018-12-27T23:23:50.946Z,14.20
2018-12-27T23:26:20.799Z,14.53
2018-12-27T23:28:50.204Z,13.40
2018-12-27T23:31:19.626Z,14.73
2018-12-27T23:33:49.089Z,14.97
2018-12-27T23:36:18.782Z,13.63
2018-12-27T23:38:50.416Z,14.00
2018-12-27T23:41:19.470Z,13.77
2018-12-27T23:43:49.362Z,13.17
2018-12-27T23:46:18.886Z,13.63
2018-12-27T23:48:48.274Z,14.73
2018-12-27T23:51:17.692Z,14.30
2018-12-27T23:53:47.313Z,13.63
2018-12-27T23:56:16.687Z,16.33
2018-12-27T23:58:46.131Z,15.43
